sensor_id;sensor_type;location;lat;lon;timestamp;temperature;humidity
19000;DHT22;9633;50.980;13.850;2024-01-15T00:01:18;2.50;1.00
19000;DHT22;9633;50.980;13.850;2024-01-15T00:02:51;2.60;1.00
19000;DHT22;9633;50.980;13.850;2024-01-15T00:04:24;2.60;1.00
19000;DHT22;9633;50.980;13.850;2024-01-15T00:05:58;2.50;1.00
19000;DHT22;9633;50.980;13.850;2024-01-15T00:07:31;2.50;1.00
19000;DHT22;9633;50.980;13.850;2024-01-15T00:09:03;2.50;1.00
19000;DHT22;9633;50.980;13.850;2024-01-15T00:10:38;2.50;1.00
19000;DHT22;9633;50.980;13.850;2024-01-15T00:12:12;2.50;1.00
19000;DHT22;9633;50.980;13.850;2024-01-15T00:13:45;2.50;1.00
19000;DHT22;9633;50.980;13.850;2024-01-15T00:15:17;2.50;1.00
19000;DHT22;9633;50.980;13.850;2024-01-15T00:16:50;2.40;1.00
19000;DHT22;9633;50.980;13.850;2024-01-15T00:18:23;2.30;1.00
19000;DHT22;9633;50.980;13.850;2024-01-15T00:19:56;2.30;1.00
19000;DHT22;9633;50.980;13.850;2024-01-15T00:21:30;2.20;1.00
19000;DHT22;9633;50.980;13.850;2024-01-15T00:23:03;2.20;1.00
19000;DHT22;9633;50.980;13.850;2024-01-15T00:24:37;2.20;1.00
19000;DHT22;9633;50.980;13.850;2024-01-15T00:26:09;2.20;1.00
19000;DHT22;9633;50.980;13.850;2024-01-15T00:27:42;2.10;1.00
19000;DHT22;9633;50.980;13.850;2024-01-15T00:29:14;2.10;1.00
19000;DHT22;9633;50.980;13.850;2024-01-15T00:30:48;2.10;1.00
19000;DHT22;9633;50.980;13.850;2024-01-15T00:32:20;2.10;1.00
19000;DHT22;9633;50.980;13.850;2024-01-15T00:33:54;2.10;1.00
19000;DHT22;9633;50.980;13.850;2024-01-15T00:35:26;2.10;1.00
19000;DHT22;9633;50.980;13.850;2024-01-15T00:37:00;2.10;1.00
19000;DHT22;9633;50.980;13.850;2024-01-15T00:38:33;2.20;1.00
19000;DHT22;9633;50.980;13.850;2024-01-15T00:40:07;2.10;1.00
19000;DHT22;9633;50.980;13.850;2024-01-15T00:41:40;2.20;1.00
19000;DHT22;9633;50.980;13.850;2024-01-15T00:43:13;2.10;1.00
19000;DHT22;9633;50.980;13.850;2024-01-15T00:44:45;2.20;1.00
19000;DHT22;9633;50.980;13.850;2024-01-15T00:46:18;2.20;1.00
19000;DHT22;9633;50.980;13.850;2024-01-15T00:47:50;2.20;1.40
19000;DHT22;9633;50.980;13.850;2024-01-15T00:49:26;2.10;1.00
19000;DHT22;9633;50.980;13.850;2024-01-15T00:50:59;2.10;1.50
19000;DHT22;9633;50.980;13.850;2024-01-15T00:52:33;2.10;1.50
19000;DHT22;9633;50.980;13.850;2024-01-15T00:54:05;2.10;2.10
19000;DHT22;9633;50.980;13.850;2024-01-15T00:55:39;2.10;2.80
19000;DHT22;9633;50.980;13.850;2024-01-15T00:57:12;2.10;3.20
19000;DHT22;9633;50.980;13.850;2024-01-15T00:58:44;2.10;3.20
19000;DHT22;9633;50.980;13.850;2024-01-15T01:00:18;2.10;3.80
19000;DHT22;9633;50.980;13.850;2024-01-15T01:01:50;2.10;3.80
19000;DHT22;9633;50.980;13.850;2024-01-15T01:03:23;2.10;4.10
19000;DHT22;9633;50.980;13.850;2024-01-15T01:04:55;2.10;4.20
19000;DHT22;9633;50.980;13.850;2024-01-15T01:06:29;2.10;4.00
19000;DHT22;9633;50.980;13.850;2024-01-15T01:08:06;2.10;4.20
19000;DHT22;9633;50.980;13.850;2024-01-15T01:09:39;2.10;2.60
19000;DHT22;9633;50.980;13.850;2024-01-15T01:11:13;2.10;3.60
19000;DHT22;9633;50.980;13.850;2024-01-15T01:12:46;2.10;3.40
19000;DHT22;9633;50.980;13.850;2024-01-15T01:14:19;2.10;3.40
19000;DHT22;9633;50.980;13.850;2024-01-15T01:15:52;2.10;3.50
19000;DHT22;9633;50.980;13.850;2024-01-15T01:17:25;2.10;3.40
19000;DHT22;9633;50.980;13.850;2024-01-15T01:18:57;2.10;3.20
19000;DHT22;9633;50.980;13.850;2024-01-15T01:20:31;2.10;3.50
19000;DHT22;9633;50.980;13.850;2024-01-15T01:22:03;2.10;3.70
19000;DHT22;9633;50.980;13.850;2024-01-15T01:23:38;2.10;3.50
19000;DHT22;9633;50.980;13.850;2024-01-15T01:25:12;2.10;3.10
19000;DHT22;9633;50.980;13.850;2024-01-15T01:26:44;2.10;3.50
19000;DHT22;9633;50.980;13.850;2024-01-15T01:28:18;2.10;3.30
19000;DHT22;9633;50.980;13.850;2024-01-15T01:29:50;2.10;3.70
19000;DHT22;9633;50.980;13.850;2024-01-15T01:31:24;2.00;3.60
19000;DHT22;9633;50.980;13.850;2024-01-15T01:32:56;2.00;3.70
19000;DHT22;9633;50.980;13.850;2024-01-15T01:34:29;2.00;3.40
19000;DHT22;9633;50.980;13.850;2024-01-15T01:36:07;2.00;3.20
19000;DHT22;9633;50.980;13.850;2024-01-15T01:37:41;2.00;3.30
19000;DHT22;9633;50.980;13.850;2024-01-15T01:39:14;2.10;3.20
19000;DHT22;9633;50.980;13.850;2024-01-15T01:40:48;2.10;3.10
19000;DHT22;9633;50.980;13.850;2024-01-15T01:42:20;2.10;1.80
19000;DHT22;9633;50.980;13.850;2024-01-15T01:43:53;2.10;1.70
19000;DHT22;9633;50.980;13.850;2024-01-15T01:45:25;2.10;1.80
19000;DHT22;9633;50.980;13.850;2024-01-15T01:47:00;2.10;1.90
19000;DHT22;9633;50.980;13.850;2024-01-15T01:48:32;2.20;2.70
19000;DHT22;9633;50.980;13.850;2024-01-15T01:50:07;2.20;2.40
19000;DHT22;9633;50.980;13.850;2024-01-15T01:51:39;2.10;2.20
19000;DHT22;9633;50.980;13.850;2024-01-15T01:53:13;2.10;1.90
19000;DHT22;9633;50.980;13.850;2024-01-15T01:54:46;2.20;2.10
19000;DHT22;9633;50.980;13.850;2024-01-15T01:56:20;2.10;2.50
19000;DHT22;9633;50.980;13.850;2024-01-15T01:57:54;2.10;2.20
19000;DHT22;9633;50.980;13.850;2024-01-15T01:59:27;2.10;2.20
19000;DHT22;9633;50.980;13.850;2024-01-15T02:01:01;2.10;2.20
19000;DHT22;9633;50.980;13.850;2024-01-15T02:02:34;2.10;2.00
19000;DHT22;9633;50.980;13.850;2024-01-15T02:04:08;2.10;2.30
19000;DHT22;9633;50.980;13.850;2024-01-15T02:05:42;2.10;2.00
19000;DHT22;9633;50.980;13.850;2024-01-15T02:07:16;2.10;2.20
19000;DHT22;9633;50.980;13.850;2024-01-15T02:08:50;2.10;1.50
19000;DHT22;9633;50.980;13.850;2024-01-15T02:10:25;2.10;1.50
19000;DHT22;9633;50.980;13.850;2024-01-15T02:11:57;2.10;1.70
19000;DHT22;9633;50.980;13.850;2024-01-15T02:13:30;2.10;1.30
19000;DHT22;9633;50.980;13.850;2024-01-15T02:15:03;2.20;1.50
19000;DHT22;9633;50.980;13.850;2024-01-15T02:16:36;2.10;1.50
19000;DHT22;9633;50.980;13.850;2024-01-15T02:18:09;2.10;1.20
19000;DHT22;9633;50.980;13.850;2024-01-15T02:19:42;2.10;1.00
19000;DHT22;9633;50.980;13.850;2024-01-15T02:21:15;2.10;1.10
19000;DHT22;9633;50.980;13.850;2024-01-15T02:22:48;2.10;1.30
19000;DHT22;9633;50.980;13.850;2024-01-15T02:24:22;2.10;1.20
19000;DHT22;9633;50.980;13.850;2024-01-15T02:25:55;2.10;1.80
19000;DHT22;9633;50.980;13.850;2024-01-15T02:27:27;2.20;1.60
19000;DHT22;9633;50.980;13.850;2024-01-15T02:29:01;2.10;1.70
19000;DHT22;9633;50.980;13.850;2024-01-15T02:30:35;2.20;1.20
19000;DHT22;9633;50.980;13.850;2024-01-15T02:32:10;2.10;1.90
19000;DHT22;9633;50.980;13.850;2024-01-15T02:33:42;2.10;1.60
19000;DHT22;9633;50.980;13.850;2024-01-15T02:35:16;2.10;1.70
19000;DHT22;9633;50.980;13.850;2024-01-15T02:36:48;2.10;2.10
19000;DHT22;9633;50.980;13.850;2024-01-15T02:38:21;2.10;2.30
19000;DHT22;9633;50.980;13.850;2024-01-15T02:39:56;2.00;2.60
19000;DHT22;9633;50.980;13.850;2024-01-15T02:41:28;2.00;2.40
19000;DHT22;9633;50.980;13.850;2024-01-15T02:43:01;2.00;1.20
19000;DHT22;9633;50.980;13.850;2024-01-15T02:44:34;2.00;1.00
19000;DHT22;9633;50.980;13.850;2024-01-15T02:46:07;2.00;2.80
19000;DHT22;9633;50.980;13.850;2024-01-15T02:47:39;2.10;2.70
19000;DHT22;9633;50.980;13.850;2024-01-15T02:49:12;2.10;3.00
19000;DHT22;9633;50.980;13.850;2024-01-15T02:50:45;2.00;2.70
19000;DHT22;9633;50.980;13.850;2024-01-15T02:52:18;2.10;2.50
19000;DHT22;9633;50.980;13.850;2024-01-15T02:53:50;2.00;2.40
19000;DHT22;9633;50.980;13.850;2024-01-15T02:55:25;2.00;2.80
19000;DHT22;9633;50.980;13.850;2024-01-15T02:56:57;2.10;3.80
19000;DHT22;9633;50.980;13.850;2024-01-15T02:58:30;2.00;3.90
19000;DHT22;9633;50.980;13.850;2024-01-15T03:00:03;2.00;4.00
19000;DHT22;9633;50.980;13.850;2024-01-15T03:01:36;1.90;3.10
19000;DHT22;9633;50.980;13.850;2024-01-15T03:03:09;1.90;3.30
19000;DHT22;9633;50.980;13.850;2024-01-15T03:04:43;1.90;2.50
19000;DHT22;9633;50.980;13.850;2024-01-15T03:06:15;2.00;2.10
19000;DHT22;9633;50.980;13.850;2024-01-15T03:07:48;1.90;2.40
19000;DHT22;9633;50.980;13.850;2024-01-15T03:09:20;2.00;2.00
19000;DHT22;9633;50.980;13.850;2024-01-15T03:10:55;2.00;2.20
19000;DHT22;9633;50.980;13.850;2024-01-15T03:12:27;2.00;1.50
19000;DHT22;9633;50.980;13.850;2024-01-15T03:14:01;2.00;1.40
19000;DHT22;9633;50.980;13.850;2024-01-15T03:15:34;1.90;1.80
19000;DHT22;9633;50.980;13.850;2024-01-15T03:17:06;1.90;3.20
19000;DHT22;9633;50.980;13.850;2024-01-15T03:18:40;1.90;2.90
19000;DHT22;9633;50.980;13.850;2024-01-15T03:20:13;1.90;3.90
19000;DHT22;9633;50.980;13.850;2024-01-15T03:21:46;1.80;3.10
19000;DHT22;9633;50.980;13.850;2024-01-15T03:23:18;1.80;3.20
19000;DHT22;9633;50.980;13.850;2024-01-15T03:24:52;1.70;2.80
19000;DHT22;9633;50.980;13.850;2024-01-15T03:26:26;1.80;2.60
19000;DHT22;9633;50.980;13.850;2024-01-15T03:27:59;1.80;2.70
19000;DHT22;9633;50.980;13.850;2024-01-15T03:29:33;1.90;3.10
19000;DHT22;9633;50.980;13.850;2024-01-15T03:31:05;1.80;2.30
19000;DHT22;9633;50.980;13.850;2024-01-15T03:32:38;1.80;2.70
19000;DHT22;9633;50.980;13.850;2024-01-15T03:34:11;1.90;2.10
19000;DHT22;9633;50.980;13.850;2024-01-15T03:35:44;1.80;2.00
19000;DHT22;9633;50.980;13.850;2024-01-15T03:37:16;1.80;1.60
19000;DHT22;9633;50.980;13.850;2024-01-15T03:38:49;1.80;2.20
19000;DHT22;9633;50.980;13.850;2024-01-15T03:40:22;1.80;1.80
19000;DHT22;9633;50.980;13.850;2024-01-15T03:41:56;1.80;2.20
19000;DHT22;9633;50.980;13.850;2024-01-15T03:43:29;1.70;1.90
19000;DHT22;9633;50.980;13.850;2024-01-15T03:45:03;1.80;2.40
19000;DHT22;9633;50.980;13.850;2024-01-15T03:46:35;1.70;2.00
19000;DHT22;9633;50.980;13.850;2024-01-15T03:48:08;1.70;2.20
19000;DHT22;9633;50.980;13.850;2024-01-15T03:49:40;1.80;2.20
19000;DHT22;9633;50.980;13.850;2024-01-15T03:51:16;1.70;1.80
19000;DHT22;9633;50.980;13.850;2024-01-15T03:52:49;1.70;1.00
19000;DHT22;9633;50.980;13.850;2024-01-15T03:54:23;1.70;2.50
19000;DHT22;9633;50.980;13.850;2024-01-15T03:55:55;1.70;2.20
19000;DHT22;9633;50.980;13.850;2024-01-15T03:57:30;1.60;2.30
19000;DHT22;9633;50.980;13.850;2024-01-15T03:59:02;1.60;2.50
19000;DHT22;9633;50.980;13.850;2024-01-15T04:00:35;1.70;3.40
19000;DHT22;9633;50.980;13.850;2024-01-15T04:02:08;1.70;3.20
19000;DHT22;9633;50.980;13.850;2024-01-15T04:03:41;1.60;3.20
19000;DHT22;9633;50.980;13.850;2024-01-15T04:05:15;1.60;4.00
19000;DHT22;9633;50.980;13.850;2024-01-15T04:06:48;1.60;4.60
19000;DHT22;9633;50.980;13.850;2024-01-15T04:08:20;1.60;8.70
19000;DHT22;9633;50.980;13.850;2024-01-15T04:09:53;1.60;7.50
19000;DHT22;9633;50.980;13.850;2024-01-15T04:11:27;1.50;8.40
19000;DHT22;9633;50.980;13.850;2024-01-15T04:13:01;1.50;8.90
19000;DHT22;9633;50.980;13.850;2024-01-15T04:14:35;1.50;8.30
19000;DHT22;9633;50.980;13.850;2024-01-15T04:16:07;1.50;8.70
19000;DHT22;9633;50.980;13.850;2024-01-15T04:17:40;1.40;9.00
19000;DHT22;9633;50.980;13.850;2024-01-15T04:19:13;1.40;7.00
19000;DHT22;9633;50.980;13.850;2024-01-15T04:20:46;1.40;7.20
19000;DHT22;9633;50.980;13.850;2024-01-15T04:22:18;1.30;9.20
19000;DHT22;9633;50.980;13.850;2024-01-15T04:23:51;1.30;6.40
19000;DHT22;9633;50.980;13.850;2024-01-15T04:25:24;1.30;6.30
19000;DHT22;9633;50.980;13.850;2024-01-15T04:26:57;1.20;6.80
19000;DHT22;9633;50.980;13.850;2024-01-15T04:28:30;1.10;5.60
19000;DHT22;9633;50.980;13.850;2024-01-15T04:30:04;1.20;3.70
19000;DHT22;9633;50.980;13.850;2024-01-15T04:31:37;1.20;3.60
19000;DHT22;9633;50.980;13.850;2024-01-15T04:33:10;1.20;4.20
19000;DHT22;9633;50.980;13.850;2024-01-15T04:34:43;1.20;5.00
19000;DHT22;9633;50.980;13.850;2024-01-15T04:36:16;1.30;5.00
19000;DHT22;9633;50.980;13.850;2024-01-15T04:37:49;1.30;4.70
19000;DHT22;9633;50.980;13.850;2024-01-15T07:52:27;1.40;6.00
19000;DHT22;9633;50.980;13.850;2024-01-15T07:54:00;1.40;3.80
19000;DHT22;9633;50.980;13.850;2024-01-15T07:55:33;1.40;3.50
19000;DHT22;9633;50.980;13.850;2024-01-15T07:57:06;1.40;3.70
19000;DHT22;9633;50.980;13.850;2024-01-15T07:58:38;1.50;3.30
19000;DHT22;9633;50.980;13.850;2024-01-15T08:00:12;1.40;3.30
19000;DHT22;9633;50.980;13.850;2024-01-15T08:01:44;1.40;3.70
19000;DHT22;9633;50.980;13.850;2024-01-15T08:03:17;1.40;3.50
19000;DHT22;9633;50.980;13.850;2024-01-15T08:04:50;1.40;2.90
19000;DHT22;9633;50.980;13.850;2024-01-15T08:06:25;1.40;1.10
19000;DHT22;9633;50.980;13.850;2024-01-15T08:07:58;1.40;2.30
19000;DHT22;9633;50.980;13.850;2024-01-15T08:09:31;1.50;2.50
19000;DHT22;9633;50.980;13.850;2024-01-15T08:11:04;1.50;2.70
19000;DHT22;9633;50.980;13.850;2024-01-15T08:12:36;1.60;2.50
19000;DHT22;9633;50.980;13.850;2024-01-15T08:14:10;1.60;2.60
19000;DHT22;9633;50.980;13.850;2024-01-15T08:15:43;1.70;2.00
19000;DHT22;9633;50.980;13.850;2024-01-15T08:17:16;1.70;2.60
19000;DHT22;9633;50.980;13.850;2024-01-15T08:18:49;1.80;2.50
19000;DHT22;9633;50.980;13.850;2024-01-15T08:20:22;1.80;1.60
19000;DHT22;9633;50.980;13.850;2024-01-15T08:21:56;1.80;1.20
19000;DHT22;9633;50.980;13.850;2024-01-15T08:23:29;1.80;1.40
19000;DHT22;9633;50.980;13.850;2024-01-15T08:25:03;1.80;1.00
19000;DHT22;9633;50.980;13.850;2024-01-15T08:26:36;1.80;1.70
19000;DHT22;9633;50.980;13.850;2024-01-15T08:28:08;1.80;1.70
19000;DHT22;9633;50.980;13.850;2024-01-15T08:29:42;1.90;1.00
19000;DHT22;9633;50.980;13.850;2024-01-15T08:31:14;1.90;1.70
19000;DHT22;9633;50.980;13.850;2024-01-15T08:32:47;1.80;1.60
19000;DHT22;9633;50.980;13.850;2024-01-15T08:34:20;1.90;1.10
19000;DHT22;9633;50.980;13.850;2024-01-15T08:35:53;1.80;1.00
19000;DHT22;9633;50.980;13.850;2024-01-15T08:37:27;1.80;1.40
19000;DHT22;9633;50.980;13.850;2024-01-15T08:38:59;1.80;1.30
19000;DHT22;9633;50.980;13.850;2024-01-15T08:40:33;1.80;1.00
19000;DHT22;9633;50.980;13.850;2024-01-15T08:42:05;1.70;1.00
19000;DHT22;9633;50.980;13.850;2024-01-15T08:43:39;1.70;1.00
19000;DHT22;9633;50.980;13.850;2024-01-15T08:45:12;1.80;1.00
19000;DHT22;9633;50.980;13.850;2024-01-15T08:46:45;1.80;1.00
19000;DHT22;9633;50.980;13.850;2024-01-15T09:33:45;3.60;9.30
19000;DHT22;9633;50.980;13.850;2024-01-15T09:35:17;3.40;8.40
19000;DHT22;9633;50.980;13.850;2024-01-15T09:36:52;3.30;8.80
19000;DHT22;9633;50.980;13.850;2024-01-15T09:38:25;3.80;9.20
19000;DHT22;9633;50.980;13.850;2024-01-15T09:40:00;4.20;1.00
19000;DHT22;9633;50.980;13.850;2024-01-15T09:41:32;3.90;1.00
19000;DHT22;9633;50.980;13.850;2024-01-15T09:43:05;3.70;1.00
19000;DHT22;9633;50.980;13.850;2024-01-15T09:44:38;3.50;1.00
19000;DHT22;9633;50.980;13.850;2024-01-15T09:46:11;3.10;1.00
19000;DHT22;9633;50.980;13.850;2024-01-15T09:47:44;2.90;1.00
19000;DHT22;9633;50.980;13.850;2024-01-15T09:49:18;2.70;1.00
19000;DHT22;9633;50.980;13.850;2024-01-15T09:50:52;2.80;1.00
19000;DHT22;9633;50.980;13.850;2024-01-15T09:52:25;2.90;2.20
19000;DHT22;9633;50.980;13.850;2024-01-15T09:53:59;3.50;6.90
19000;DHT22;9633;50.980;13.850;2024-01-15T09:55:34;3.80;6.10
19000;DHT22;9633;50.980;13.850;2024-01-15T09:57:07;3.90;7.10
19000;DHT22;9633;50.980;13.850;2024-01-15T09:58:41;3.70;6.40
19000;DHT22;9633;50.980;13.850;2024-01-15T10:00:17;3.80;6.90
19000;DHT22;9633;50.980;13.850;2024-01-15T10:01:50;3.80;7.00
19000;DHT22;9633;50.980;13.850;2024-01-15T10:03:24;3.70;7.30
19000;DHT22;9633;50.980;13.850;2024-01-15T10:04:58;3.80;7.70
19000;DHT22;9633;50.980;13.850;2024-01-15T10:06:30;4.10;6.60
19000;DHT22;9633;50.980;13.850;2024-01-15T10:08:04;4.40;5.90
19000;DHT22;9633;50.980;13.850;2024-01-15T10:09:37;4.60;6.30
19000;DHT22;9633;50.980;13.850;2024-01-15T10:11:11;4.40;6.60
19000;DHT22;9633;50.980;13.850;2024-01-15T10:12:45;3.90;6.60
19000;DHT22;9633;50.980;13.850;2024-01-15T10:14:17;3.70;5.80
19000;DHT22;9633;50.980;13.850;2024-01-15T10:15:50;3.20;5.60
19000;DHT22;9633;50.980;13.850;2024-01-15T10:17:24;3.20;5.20
19000;DHT22;9633;50.980;13.850;2024-01-15T10:18:57;3.00;5.00
19000;DHT22;9633;50.980;13.850;2024-01-15T10:20:32;2.90;6.40
19000;DHT22;9633;50.980;13.850;2024-01-15T10:22:05;2.80;7.30
19000;DHT22;9633;50.980;13.850;2024-01-15T10:23:38;2.70;6.60
19000;DHT22;9633;50.980;13.850;2024-01-15T10:25:11;2.70;6.50
19000;DHT22;9633;50.980;13.850;2024-01-15T10:26:46;2.70;5.70
19000;DHT22;9633;50.980;13.850;2024-01-15T10:28:19;2.80;5.80
19000;DHT22;9633;50.980;13.850;2024-01-15T10:29:52;3.00;6.20
19000;DHT22;9633;50.980;13.850;2024-01-15T10:31:26;3.30;5.30
19000;DHT22;9633;50.980;13.850;2024-01-15T10:33:03;3.30;5.20
19000;DHT22;9633;50.980;13.850;2024-01-15T10:34:40;3.20;7.20
19000;DHT22;9633;50.980;13.850;2024-01-15T10:36:14;3.70;8.20
19000;DHT22;9633;50.980;13.850;2024-01-15T10:37:48;4.10;7.90
19000;DHT22;9633;50.980;13.850;2024-01-15T10:39:20;4.50;8.40
19000;DHT22;9633;50.980;13.850;2024-01-15T10:40:54;4.60;8.40
19000;DHT22;9633;50.980;13.850;2024-01-15T10:42:29;4.90;9.20
19000;DHT22;9633;50.980;13.850;2024-01-15T10:44:01;4.50;6.10
19000;DHT22;9633;50.980;13.850;2024-01-15T10:45:35;4.00;6.90
19000;DHT22;9633;50.980;13.850;2024-01-15T10:47:07;3.90;7.40
19000;DHT22;9633;50.980;13.850;2024-01-15T10:48:41;4.10;6.20
19000;DHT22;9633;50.980;13.850;2024-01-15T10:50:15;4.40;6.80
19000;DHT22;9633;50.980;13.850;2024-01-15T10:51:47;4.80;8.80
19000;DHT22;9633;50.980;13.850;2024-01-15T10:53:21;5.00;9.00
19000;DHT22;9633;50.980;13.850;2024-01-15T10:54:57;4.80;9.40
19000;DHT22;9633;50.980;13.850;2024-01-15T10:56:32;4.80;10.30
19000;DHT22;9633;50.980;13.850;2024-01-15T10:58:08;4.90;9.50
19000;DHT22;9633;50.980;13.850;2024-01-15T10:59:41;4.60;9.90
19000;DHT22;9633;50.980;13.850;2024-01-15T11:01:14;4.30;8.70
19000;DHT22;9633;50.980;13.850;2024-01-15T11:02:47;4.20;9.00
19000;DHT22;9633;50.980;13.850;2024-01-15T11:04:22;3.60;14.20
19000;DHT22;9633;50.980;13.850;2024-01-15T11:05:55;4.00;15.00
19000;DHT22;9633;50.980;13.850;2024-01-15T11:07:30;4.20;16.00
19000;DHT22;9633;50.980;13.850;2024-01-15T11:09:02;4.80;17.10
19000;DHT22;9633;50.980;13.850;2024-01-15T11:10:40;5.90;10.80
19000;DHT22;9633;50.980;13.850;2024-01-15T11:12:13;5.90;5.00
19000;DHT22;9633;50.980;13.850;2024-01-15T11:13:49;5.50;6.10
19000;DHT22;9633;50.980;13.850;2024-01-15T11:15:23;4.70;6.70
19000;DHT22;9633;50.980;13.850;2024-01-15T11:17:01;4.50;6.00
19000;DHT22;9633;50.980;13.850;2024-01-15T11:18:35;4.00;6.40
19000;DHT22;9633;50.980;13.850;2024-01-15T11:20:13;3.80;5.60
19000;DHT22;9633;50.980;13.850;2024-01-15T11:21:45;3.80;6.20
19000;DHT22;9633;50.980;13.850;2024-01-15T11:23:41;4.00;5.80
19000;DHT22;9633;50.980;13.850;2024-01-15T11:25:14;4.00;5.70
19000;DHT22;9633;50.980;13.850;2024-01-15T11:26:48;3.90;4.40
19000;DHT22;9633;50.980;13.850;2024-01-15T11:28:47;3.80;4.70
19000;DHT22;9633;50.980;13.850;2024-01-15T11:30:25;3.90;4.60
19000;DHT22;9633;50.980;13.850;2024-01-15T11:32:00;4.20;5.30
19000;DHT22;9633;50.980;13.850;2024-01-15T11:33:34;3.90;5.00
19000;DHT22;9633;50.980;13.850;2024-01-15T11:37:03;4.10;1.00
19000;DHT22;9633;50.980;13.850;2024-01-15T11:38:36;4.30;1.00
19000;DHT22;9633;50.980;13.850;2024-01-15T11:40:09;4.40;1.00
19000;DHT22;9633;50.980;13.850;2024-01-15T11:41:44;4.60;1.00
19000;DHT22;9633;50.980;13.850;2024-01-15T11:43:18;4.70;1.00
19000;DHT22;9633;50.980;13.850;2024-01-15T11:44:54;4.70;1.00
19000;DHT22;9633;50.980;13.850;2024-01-15T11:46:33;4.40;1.00
19000;DHT22;9633;50.980;13.850;2024-01-15T11:48:11;3.90;1.00
19000;DHT22;9633;50.980;13.850;2024-01-15T11:49:59;3.70;1.00
19000;DHT22;9633;50.980;13.850;2024-01-15T11:51:33;3.70;1.00
19000;DHT22;9633;50.980;13.850;2024-01-15T11:53:16;3.90;1.00
19000;DHT22;9633;50.980;13.850;2024-01-15T11:54:52;3.80;1.00
19000;DHT22;9633;50.980;13.850;2024-01-15T11:56:28;3.90;1.00
19000;DHT22;9633;50.980;13.850;2024-01-15T11:58:02;3.90;1.00
19000;DHT22;9633;50.980;13.850;2024-01-15T11:59:37;4.10;1.00
19000;DHT22;9633;50.980;13.850;2024-01-15T12:01:10;4.10;1.00
19000;DHT22;9633;50.980;13.850;2024-01-15T12:02:46;4.30;1.00
19000;DHT22;9633;50.980;13.850;2024-01-15T12:04:20;4.10;1.00
19000;DHT22;9633;50.980;13.850;2024-01-15T12:05:54;4.30;1.00
19000;DHT22;9633;50.980;13.850;2024-01-15T12:07:27;3.90;1.00
19000;DHT22;9633;50.980;13.850;2024-01-15T12:09:06;4.00;1.00
19000;DHT22;9633;50.980;13.850;2024-01-15T12:10:40;4.10;1.00
19000;DHT22;9633;50.980;13.850;2024-01-15T12:12:19;4.10;1.00
19000;DHT22;9633;50.980;13.850;2024-01-15T12:13:54;4.00;1.00
19000;DHT22;9633;50.980;13.850;2024-01-15T12:15:29;4.10;1.00
19000;DHT22;9633;50.980;13.850;2024-01-15T12:17:02;4.00;1.00
19000;DHT22;9633;50.980;13.850;2024-01-15T12:18:38;3.80;1.00
19000;DHT22;9633;50.980;13.850;2024-01-15T12:20:12;3.60;1.00
19000;DHT22;9633;50.980;13.850;2024-01-15T12:21:45;3.70;1.00
19000;DHT22;9633;50.980;13.850;2024-01-15T12:23:19;3.60;1.00
19000;DHT22;9633;50.980;13.850;2024-01-15T12:24:52;3.60;1.00
19000;DHT22;9633;50.980;13.850;2024-01-15T12:26:24;3.60;1.00
19000;DHT22;9633;50.980;13.850;2024-01-15T12:27:58;3.40;1.00
19000;DHT22;9633;50.980;13.850;2024-01-15T12:29:31;3.50;1.00
19000;DHT22;9633;50.980;13.850;2024-01-15T12:31:05;3.30;1.00
19000;DHT22;9633;50.980;13.850;2024-01-15T12:32:40;3.50;1.00
19000;DHT22;9633;50.980;13.850;2024-01-15T12:34:14;3.50;1.00
19000;DHT22;9633;50.980;13.850;2024-01-15T12:35:47;3.50;1.00
19000;DHT22;9633;50.980;13.850;2024-01-15T12:37:21;3.40;1.00
19000;DHT22;9633;50.980;13.850;2024-01-15T12:38:53;3.40;1.00
19000;DHT22;9633;50.980;13.850;2024-01-15T12:40:26;3.30;1.00
19000;DHT22;9633;50.980;13.850;2024-01-15T12:41:58;3.20;1.00
19000;DHT22;9633;50.980;13.850;2024-01-15T12:43:32;3.20;1.00
19000;DHT22;9633;50.980;13.850;2024-01-15T12:45:06;3.20;1.00
19000;DHT22;9633;50.980;13.850;2024-01-15T12:46:38;3.20;1.00
19000;DHT22;9633;50.980;13.850;2024-01-15T12:48:12;3.20;1.00
19000;DHT22;9633;50.980;13.850;2024-01-15T12:49:50;3.20;1.00
19000;DHT22;9633;50.980;13.850;2024-01-15T12:51:36;3.30;1.00
19000;DHT22;9633;50.980;13.850;2024-01-15T12:53:10;3.20;1.00
19000;DHT22;9633;50.980;13.850;2024-01-15T12:54:42;3.30;1.00
19000;DHT22;9633;50.980;13.850;2024-01-15T12:56:16;3.30;1.00
19000;DHT22;9633;50.980;13.850;2024-01-15T12:57:49;3.20;1.00
19000;DHT22;9633;50.980;13.850;2024-01-15T12:59:24;3.10;1.00
19000;DHT22;9633;50.980;13.850;2024-01-15T13:00:56;3.00;1.00
19000;DHT22;9633;50.980;13.850;2024-01-15T13:02:30;2.90;1.00
19000;DHT22;9633;50.980;13.850;2024-01-15T13:04:03;2.90;1.00
19000;DHT22;9633;50.980;13.850;2024-01-15T13:05:40;2.80;1.00
19000;DHT22;9633;50.980;13.850;2024-01-15T13:07:13;2.70;2.10
19000;DHT22;9633;50.980;13.850;2024-01-15T13:08:46;2.70;1.60
19000;DHT22;9633;50.980;13.850;2024-01-15T13:10:19;2.50;2.70
19000;DHT22;9633;50.980;13.850;2024-01-15T13:11:53;2.40;2.50
19000;DHT22;9633;50.980;13.850;2024-01-15T13:13:26;2.50;4.00
19000;DHT22;9633;50.980;13.850;2024-01-15T13:14:59;2.60;3.70
19000;DHT22;9633;50.980;13.850;2024-01-15T13:16:35;2.70;4.00
19000;DHT22;9633;50.980;13.850;2024-01-15T13:18:07;2.60;2.60
19000;DHT22;9633;50.980;13.850;2024-01-15T13:19:41;2.50;4.80
19000;DHT22;9633;50.980;13.850;2024-01-15T13:21:15;2.50;4.10
19000;DHT22;9633;50.980;13.850;2024-01-15T13:22:48;2.50;5.10
19000;DHT22;9633;50.980;13.850;2024-01-15T13:24:22;2.50;5.20
19000;DHT22;9633;50.980;13.850;2024-01-15T13:25:54;2.30;4.30
19000;DHT22;9633;50.980;13.850;2024-01-15T13:27:28;2.40;4.60
19000;DHT22;9633;50.980;13.850;2024-01-15T13:29:02;2.20;5.20
19000;DHT22;9633;50.980;13.850;2024-01-15T13:30:35;2.30;6.50
19000;DHT22;9633;50.980;13.850;2024-01-15T13:32:12;2.30;6.10
19000;DHT22;9633;50.980;13.850;2024-01-15T13:33:47;2.30;6.60
19000;DHT22;9633;50.980;13.850;2024-01-15T13:35:20;2.20;6.40
19000;DHT22;9633;50.980;13.850;2024-01-15T13:36:55;2.20;6.40
19000;DHT22;9633;50.980;13.850;2024-01-15T13:38:28;2.20;7.70
19000;DHT22;9633;50.980;13.850;2024-01-15T13:40:10;2.30;7.50
19000;DHT22;9633;50.980;13.850;2024-01-15T13:41:48;2.20;7.20
19000;DHT22;9633;50.980;13.850;2024-01-15T13:43:21;2.20;7.40
19000;DHT22;9633;50.980;13.850;2024-01-15T13:44:53;2.20;7.90
19000;DHT22;9633;50.980;13.850;2024-01-15T13:46:27;2.10;7.90
19000;DHT22;9633;50.980;13.850;2024-01-15T13:47:59;2.10;8.50
19000;DHT22;9633;50.980;13.850;2024-01-15T13:49:32;2.20;8.50
19000;DHT22;9633;50.980;13.850;2024-01-15T13:51:06;2.20;8.20
19000;DHT22;9633;50.980;13.850;2024-01-15T13:52:41;2.30;8.20
19000;DHT22;9633;50.980;13.850;2024-01-15T13:54:13;2.30;9.10
19000;DHT22;9633;50.980;13.850;2024-01-15T13:55:47;2.20;9.00
19000;DHT22;9633;50.980;13.850;2024-01-15T13:57:19;2.30;9.50
19000;DHT22;9633;50.980;13.850;2024-01-15T13:58:53;2.20;9.60
19000;DHT22;9633;50.980;13.850;2024-01-15T14:00:27;2.10;9.70
19000;DHT22;9633;50.980;13.850;2024-01-15T14:01:59;2.10;10.00
19000;DHT22;9633;50.980;13.850;2024-01-15T14:03:32;2.10;10.20
19000;DHT22;9633;50.980;13.850;2024-01-15T14:05:06;2.00;10.10
19000;DHT22;9633;50.980;13.850;2024-01-15T14:06:39;1.90;10.60
19000;DHT22;9633;50.980;13.850;2024-01-15T14:08:13;1.70;10.20
19000;DHT22;9633;50.980;13.850;2024-01-15T14:09:46;1.70;10.90
19000;DHT22;9633;50.980;13.850;2024-01-15T14:11:18;1.70;11.40
19000;DHT22;9633;50.980;13.850;2024-01-15T14:12:51;1.70;11.80